createdAt,value
2023-02-16T00:00:22.112Z,98756.09
2023-02-16T00:02:49.375Z,98752.59
2023-02-16T00:05:27.659Z,98752.69
2023-02-16T00:07:57.296Z,98753.00
2023-02-16T00:10:26.329Z,98760.44
2023-02-16T00:13:12.353Z,98756.00
2023-02-16T00:15:39.859Z,98760.44
2023-02-16T00:18:21.943Z,98752.03
2023-02-16T00:20:49.611Z,98745.28
2023-02-16T00:23:16.564Z,98753.09
2023-02-16T00:25:43.321Z,98758.38
2023-02-16T00:28:16.317Z,98760.91
2023-02-16T00:30:44.901Z,98769.59
2023-02-16T00:33:20.863Z,98766.94
2023-02-16T00:35:48.122Z,98767.06
2023-02-16T00:38:16.021Z,98754.91
2023-02-16T00:40:43.218Z,98762.63
2023-02-16T00:43:31.092Z,98751.75
2023-02-16T00:45:59.278Z,98753.50
2023-02-16T00:48:26.012Z,98745.53
2023-02-16T00:50:53.403Z,98744.78
2023-02-16T00:53:20.036Z,98750.94
2023-02-16T00:55:46.873Z,98742.47
2023-02-16T00:58:26.543Z,98755.09
2023-02-16T01:01:06.529Z,98754.34
2023-02-16T01:03:33.400Z,98748.47
2023-02-16T01:06:18.621Z,98751.09
2023-02-16T01:09:03.662Z,98752.91
2023-02-16T01:11:33.240Z,98745.13
2023-02-16T01:14:01.864Z,98744.84
2023-02-16T01:16:40.741Z,98752.56
2023-02-16T01:19:07.638Z,98751.94
2023-02-16T01:21:34.241Z,98744.44
2023-02-16T01:24:01.788Z,98756.47
2023-02-16T01:26:30.181Z,98753.81
2023-02-16T01:28:56.794Z,98747.06
2023-02-16T01:31:23.534Z,98752.94
2023-02-16T01:33:50.914Z,98753.94
2023-02-16T01:36:32.624Z,98744.47
2023-02-16T01:39:00.312Z,98742.03
2023-02-16T01:41:40.563Z,98741.88
2023-02-16T01:44:22.205Z,98744.38
2023-02-16T01:47:00.954Z,98748.09
2023-02-16T01:49:28.071Z,98752.09
2023-02-16T01:52:12.366Z,98737.59
2023-02-16T01:54:44.288Z,98742.91
2023-02-16T01:57:37.712Z,98736.88
2023-02-16T02:00:29.108Z,98733.41
2023-02-16T02:03:22.595Z,98726.63
2023-02-16T02:05:51.366Z,98725.88
2023-02-16T02:08:40.183Z,98725.81
2023-02-16T02:11:15.058Z,98723.44
2023-02-16T02:14:06.172Z,98725.09
2023-02-16T02:16:33.328Z,98720.00
2023-02-16T02:19:00.278Z,98718.19
2023-02-16T02:22:36.945Z,98717.31
2023-02-16T02:25:12.715Z,98715.78
2023-02-16T02:27:42.732Z,98711.59
2023-02-16T02:30:27.642Z,98709.09
2023-02-16T02:33:22.571Z,98706.63
2023-02-16T02:35:59.084Z,98698.91
2023-02-16T02:38:40.519Z,98700.72
2023-02-16T02:41:22.908Z,98694.59
2023-02-16T02:44:00.272Z,98698.81
2023-02-16T02:46:32.198Z,98697.22
2023-02-16T02:48:58.956Z,98698.03
2023-02-16T02:51:33.636Z,98702.19
2023-02-16T02:54:41.142Z,98701.41
2023-02-16T02:57:36.402Z,98698.88
2023-02-16T03:00:47.328Z,98695.56
2023-02-16T03:03:32.064Z,98690.34
2023-02-16T03:06:04.427Z,98702.38
2023-02-16T03:08:33.876Z,98692.91
2023-02-16T03:11:45.663Z,98704.09
2023-02-16T03:14:22.030Z,98701.53
2023-02-16T03:17:12.188Z,98696.31
2023-02-16T03:20:01.159Z,98691.41
2023-02-16T03:22:47.586Z,98693.28
2023-02-16T03:25:33.391Z,98687.34
2023-02-16T03:28:21.091Z,98691.56
2023-02-16T03:30:50.345Z,98692.31
2023-02-16T03:33:17.820Z,98693.97
2023-02-16T03:35:46.465Z,98693.91
2023-02-16T03:38:13.594Z,98693.91
2023-02-16T03:40:42.902Z,98686.34
2023-02-16T03:43:09.753Z,98689.75
2023-02-16T03:45:39.820Z,98685.53
2023-02-16T03:48:06.850Z,98688.16
2023-02-16T03:50:33.796Z,98685.69
2023-02-16T03:53:09.509Z,98691.66
2023-02-16T03:55:48.253Z,98686.41
2023-02-16T03:58:17.827Z,98685.59
2023-02-16T04:00:45.130Z,98689.22
2023-02-16T04:03:11.865Z,98696.78
2023-02-16T04:05:38.929Z,98686.44
2023-02-16T04:08:06.831Z,98686.47
2023-02-16T04:10:33.893Z,98681.34
2023-02-16T04:13:00.502Z,98680.53
2023-02-16T04:15:29.677Z,98679.56
2023-02-16T04:17:56.488Z,98679.66
2023-02-16T04:20:27.464Z,98674.47
2023-02-16T04:22:54.155Z,98668.59
2023-02-16T04:25:21.883Z,98672.09
2023-02-16T04:27:49.290Z,98675.38
2023-02-16T04:30:19.192Z,98666.16
2023-02-16T04:32:45.853Z,98669.63
2023-02-16T04:35:12.892Z,98662.91
2023-02-16T04:37:39.487Z,98664.72
2023-02-16T04:40:07.860Z,98664.69
2023-02-16T04:42:34.543Z,98661.31
2023-02-16T04:45:01.291Z,98662.16
2023-02-16T04:47:28.645Z,98662.09
2023-02-16T04:49:55.357Z,98651.78
2023-02-16T04:52:21.982Z,98653.53
2023-02-16T04:54:48.688Z,98653.53
2023-02-16T04:57:15.761Z,98656.06
2023-02-16T04:59:42.374Z,98653.47
2023-02-16T05:02:09.076Z,98650.00
2023-02-16T05:04:35.759Z,98655.06
2023-02-16T05:07:02.676Z,98649.16
2023-02-16T05:09:29.270Z,98649.28
2023-02-16T05:12:14.276Z,98648.38
2023-02-16T05:14:45.526Z,98653.53
2023-02-16T05:17:20.386Z,98653.56
2023-02-16T05:19:49.762Z,98646.66
2023-02-16T05:22:16.807Z,98647.69
2023-02-16T05:24:43.966Z,98648.53
2023-02-16T05:27:17.375Z,98649.44
2023-02-16T05:29:44.804Z,98648.53
2023-02-16T05:32:11.848Z,98648.69
2023-02-16T05:34:38.870Z,98650.34
2023-02-16T05:37:05.691Z,98651.38
2023-02-16T05:39:32.965Z,98643.75
2023-02-16T05:42:00.143Z,98651.41
2023-02-16T05:44:26.829Z,98650.59
2023-02-16T05:46:53.692Z,98647.09
2023-02-16T05:49:20.276Z,98646.25
2023-02-16T05:51:47.076Z,98651.34
2023-02-16T05:54:17.719Z,98655.50
2023-02-16T05:56:49.655Z,98661.38
2023-02-16T05:59:17.649Z,98663.16
2023-02-16T06:01:48.669Z,98661.41
2023-02-16T06:04:18.820Z,98663.88
2023-02-16T06:06:45.449Z,98661.38
2023-02-16T06:09:12.401Z,98670.81
2023-02-16T06:11:39.930Z,98675.03
2023-02-16T06:14:10.656Z,98674.16
2023-02-16T06:16:39.085Z,98680.00
2023-02-16T06:19:06.573Z,98678.25
2023-02-16T06:21:34.288Z,98680.06
2023-02-16T06:24:00.964Z,98681.63
2023-02-16T06:26:28.504Z,98686.78
2023-02-16T06:28:55.693Z,98682.41
2023-02-16T06:31:23.645Z,98686.63
2023-02-16T06:33:50.843Z,98688.16
2023-02-16T06:36:18.236Z,98690.66
2023-02-16T06:38:45.573Z,98682.88
2023-02-16T06:41:12.497Z,98690.88
2023-02-16T06:43:39.148Z,98702.91
2023-02-16T06:46:05.776Z,98701.22
2023-02-16T06:48:32.847Z,98700.97
2023-02-16T06:50:59.716Z,98699.72
2023-02-16T06:53:26.611Z,98703.06
2023-02-16T06:55:53.393Z,98695.31
2023-02-16T06:58:20.152Z,98700.97
2023-02-16T07:00:46.912Z,98699.16
2023-02-16T07:03:13.742Z,98693.03
2023-02-16T07:05:40.456Z,98699.44
2023-02-16T07:08:07.150Z,98689.38
2023-02-16T07:10:48.665Z,98692.41
2023-02-16T07:13:16.614Z,98688.31
2023-02-16T07:15:43.511Z,98689.31
2023-02-16T07:18:10.078Z,98690.06
2023-02-16T07:20:37.038Z,98684.97
2023-02-16T07:23:03.989Z,98679.75
2023-02-16T07:25:30.583Z,98685.78
2023-02-16T07:27:57.180Z,98681.47
2023-02-16T07:30:24.030Z,98682.94
2023-02-16T07:32:50.722Z,98684.06
2023-02-16T07:35:17.483Z,98685.84
2023-02-16T07:37:44.134Z,98687.69
2023-02-16T07:40:11.335Z,98684.38
2023-02-16T07:42:38.114Z,98679.28
2023-02-16T07:45:05.252Z,98690.47
2023-02-16T07:47:31.906Z,98684.66
2023-02-16T07:49:58.577Z,98690.38
2023-02-16T07:52:30.784Z,98695.34
2023-02-16T07:55:01.827Z,98688.38
2023-02-16T07:57:29.641Z,98690.34
2023-02-16T07:59:56.679Z,98688.81
2023-02-16T08:02:23.974Z,98686.78
2023-02-16T08:04:52.996Z,98685.91
2023-02-16T08:07:20.167Z,98688.50
2023-02-16T08:09:47.409Z,98688.78
2023-02-16T08:12:15.423Z,98685.63
2023-02-16T08:14:42.460Z,98679.25
2023-02-16T08:17:09.327Z,98682.19
2023-02-16T08:19:37.275Z,98684.09
2023-02-16T08:22:04.838Z,98682.78
2023-02-16T08:24:32.258Z,98682.59
2023-02-16T08:26:59.927Z,98684.56
2023-02-16T08:29:26.847Z,98675.38
2023-02-16T08:31:55.573Z,98682.97
2023-02-16T08:34:24.484Z,98678.25
2023-02-16T08:36:56.768Z,98682.19
2023-02-16T08:39:26.250Z,98685.00
2023-02-16T08:41:54.392Z,98686.19
2023-02-16T08:44:23.770Z,98687.59
2023-02-16T08:46:52.943Z,98681.75
2023-02-16T08:49:22.185Z,98692.53
2023-02-16T08:51:52.400Z,98686.41
2023-02-16T08:54:22.390Z,98677.25
2023-02-16T08:56:49.667Z,98676.81
2023-02-16T08:59:18.263Z,98674.97
2023-02-16T09:01:45.597Z,98681.38
2023-02-16T09:04:13.675Z,98679.84
2023-02-16T09:06:44.234Z,98674.97
2023-02-16T09:09:13.314Z,98675.78
2023-02-16T09:11:40.986Z,98669.69
2023-02-16T09:14:09.326Z,98671.34
2023-02-16T09:16:39.587Z,98674.09
2023-02-16T09:19:07.367Z,98676.34
2023-02-16T09:21:34.405Z,98674.94
2023-02-16T09:24:03.695Z,98666.41
2023-02-16T09:26:37.037Z,98669.13
2023-02-16T09:29:04.309Z,98658.13
2023-02-16T09:31:34.223Z,98658.13
2023-02-16T09:34:14.208Z,98654.09
2023-02-16T09:36:41.470Z,98652.97
2023-02-16T09:39:08.286Z,98652.63
2023-02-16T09:41:40.541Z,98662.56
2023-02-16T09:44:20.850Z,98652.25
2023-02-16T09:46:49.047Z,98659.31
2023-02-16T09:49:24.876Z,98660.97
2023-02-16T09:52:19.237Z,98652.31
2023-02-16T09:54:53.214Z,98654.91
2023-02-16T09:57:57.074Z,98654.88
2023-02-16T10:00:33.198Z,98653.88
2023-02-16T10:03:34.595Z,98657.63
2023-02-16T10:06:17.154Z,98663.41
2023-02-16T10:09:12.721Z,98662.28
2023-02-16T10:11:51.264Z,98654.16
2023-02-16T10:14:44.238Z,98661.38
2023-02-16T10:17:38.856Z,98660.97
2023-02-16T10:20:17.943Z,98653.09
2023-02-16T10:23:06.919Z,98647.34
2023-02-16T10:26:15.017Z,98643.19
2023-02-16T10:28:55.422Z,98645.25
2023-02-16T10:31:48.594Z,98637.47
2023-02-16T10:34:24.463Z,98639.84
2023-02-16T10:37:12.601Z,98633.25
2023-02-16T10:39:49.634Z,98638.84
2023-02-16T10:42:20.005Z,98630.25
2023-02-16T10:45:15.685Z,98633.66
2023-02-16T10:47:43.999Z,98633.91
2023-02-16T10:50:52.249Z,98627.56
2023-02-16T10:53:29.357Z,98628.94
2023-02-16T10:55:57.590Z,98624.00
2023-02-16T10:58:38.724Z,98625.19
2023-02-16T11:01:11.419Z,98613.69
2023-02-16T11:03:45.265Z,98609.00
2023-02-16T11:06:18.099Z,98602.66
2023-02-16T11:08:54.993Z,98602.53
2023-02-16T11:11:23.144Z,98595.84
2023-02-16T11:13:57.760Z,98592.38
2023-02-16T11:16:26.427Z,98586.13
2023-02-16T11:19:20.541Z,98591.06
2023-02-16T11:21:52.028Z,98594.22
2023-02-16T11:24:27.914Z,98596.38
2023-02-16T11:27:02.502Z,98593.84
2023-02-16T11:29:29.669Z,98601.53
2023-02-16T11:31:56.821Z,98593.34
2023-02-16T11:34:33.229Z,98594.41
2023-02-16T11:37:18.889Z,98596.88
2023-02-16T11:39:52.547Z,98590.72
2023-02-16T11:42:34.925Z,98578.97
2023-02-16T11:45:02.796Z,98570.28
2023-02-16T11:47:36.194Z,98567.50
2023-02-16T11:50:09.262Z,98562.63
2023-02-16T11:52:36.446Z,98563.59
2023-02-16T11:55:03.472Z,98558.38
2023-02-16T11:57:32.500Z,98554.44
2023-02-16T12:00:02.020Z,98555.59
2023-02-16T12:03:06.265Z,98552.56
2023-02-16T12:05:51.826Z,98551.56
2023-02-16T12:08:42.899Z,98542.84
2023-02-16T12:11:26.230Z,98536.63
2023-02-16T12:14:17.035Z,98528.94
2023-02-16T12:17:12.759Z,98525.84
2023-02-16T12:19:44.187Z,98515.72
2023-02-16T12:22:29.251Z,98517.59
2023-02-16T12:25:25.727Z,98516.69
2023-02-16T12:28:24.992Z,98503.63
2023-02-16T12:31:11.482Z,98508.34
2023-02-16T12:33:38.128Z,98501.13
2023-02-16T12:36:24.067Z,98499.66
2023-02-16T12:39:18.344Z,98486.72
2023-02-16T12:42:26.775Z,98488.78
2023-02-16T12:45:06.764Z,98483.25
2023-02-16T12:47:41.697Z,98484.63
2023-02-16T12:50:30.594Z,98484.25
2023-02-16T12:53:11.972Z,98477.22
2023-02-16T12:55:44.626Z,98479.91
2023-02-16T12:58:14.876Z,98471.75
2023-02-16T13:00:46.590Z,98468.19
2023-02-16T13:03:29.075Z,98473.81
2023-02-16T13:06:14.625Z,98472.44
2023-02-16T13:08:53.169Z,98467.41
2023-02-16T13:11:25.962Z,98465.09
2023-02-16T13:13:56.844Z,98467.13
2023-02-16T13:16:47.022Z,98461.16
2023-02-16T13:19:14.602Z,98460.88
2023-02-16T13:21:53.233Z,98454.13
2023-02-16T13:24:43.681Z,98450.84
2023-02-16T13:27:29.895Z,98448.16
2023-02-16T13:30:08.945Z,98446.06
2023-02-16T13:33:07.095Z,98441.16
2023-02-16T13:35:42.822Z,98450.16
2023-02-16T13:38:28.203Z,98446.69
2023-02-16T13:41:15.788Z,98443.78
2023-02-16T13:43:52.314Z,98434.97
2023-02-16T13:46:29.541Z,98441.50
2023-02-16T13:48:57.120Z,98437.50
2023-02-16T13:51:27.357Z,98438.53
2023-02-16T13:53:58.062Z,98435.88
2023-02-16T13:56:33.355Z,98433.13
2023-02-16T13:59:20.091Z,98433.94
2023-02-16T14:01:51.716Z,98437.28
2023-02-16T14:04:25.013Z,98441.69
2023-02-16T14:07:22.490Z,98439.63
2023-02-16T14:09:50.127Z,98445.25
2023-02-16T14:12:31.899Z,98442.84
2023-02-16T14:15:19.579Z,98438.03
2023-02-16T14:17:47.254Z,98436.06
2023-02-16T14:20:13.919Z,98446.72
2023-02-16T14:22:49.610Z,98433.63
2023-02-16T14:25:22.335Z,98434.22
2023-02-16T14:27:58.789Z,98436.13
2023-02-16T14:30:47.061Z,98434.28
2023-02-16T14:33:15.931Z,98425.13
2023-02-16T14:35:44.217Z,98434.22
2023-02-16T14:38:37.293Z,98436.31
2023-02-16T14:41:22.519Z,98427.63
2023-02-16T14:43:53.991Z,98430.00
2023-02-16T14:46:42.783Z,98424.59
2023-02-16T14:49:28.347Z,98425.31
2023-02-16T14:51:55.160Z,98434.78
2023-02-16T14:54:49.299Z,98425.66
2023-02-16T14:57:27.054Z,98429.63
2023-02-16T15:00:13.505Z,98429.31
2023-02-16T15:02:43.363Z,98427.94
2023-02-16T15:05:18.723Z,98429.13
2023-02-16T15:07:50.514Z,98432.75
2023-02-16T15:10:26.841Z,98428.78
2023-02-16T15:12:56.136Z,98434.47
2023-02-16T15:15:40.575Z,98432.75
2023-02-16T15:18:12.716Z,98435.19
2023-02-16T15:20:39.734Z,98441.69
2023-02-16T15:23:20.059Z,98447.06
2023-02-16T15:25:59.520Z,98446.34
2023-02-16T15:28:32.648Z,98446.78
2023-02-16T15:31:03.432Z,98449.78
2023-02-16T15:33:37.222Z,98443.25
2023-02-16T15:36:07.987Z,98449.63
2023-02-16T15:38:38.275Z,98440.34
2023-02-16T15:41:08.642Z,98444.66
2023-02-16T15:43:43.457Z,98437.06
2023-02-16T15:46:28.501Z,98438.66
2023-02-16T15:48:56.236Z,98438.41
2023-02-16T15:51:31.610Z,98442.41
2023-02-16T15:54:02.920Z,98437.78
2023-02-16T15:56:31.324Z,98441.34
2023-02-16T15:59:02.017Z,98436.56
2023-02-16T16:01:35.484Z,98436.91
2023-02-16T16:04:23.281Z,98450.22
2023-02-16T16:06:51.705Z,98445.53
2023-02-16T16:09:25.644Z,98448.28
2023-02-16T16:11:57.546Z,98449.53
2023-02-16T16:14:26.259Z,98458.28
2023-02-16T16:16:53.648Z,98456.75
2023-02-16T16:19:36.565Z,98465.19
2023-02-16T16:22:15.536Z,98461.03
2023-02-16T16:24:45.247Z,98461.25
2023-02-16T16:27:13.185Z,98455.47
2023-02-16T16:29:41.338Z,98447.81
2023-02-16T16:32:19.072Z,98456.19
2023-02-16T16:34:45.985Z,98456.41
2023-02-16T16:37:31.118Z,98458.88
2023-02-16T16:40:06.801Z,98456.94
2023-02-16T16:42:39.144Z,98463.94
2023-02-16T16:45:29.110Z,98462.94
2023-02-16T16:47:56.203Z,98460.94
2023-02-16T16:50:33.211Z,98470.50
2023-02-16T16:53:00.576Z,98473.50
2023-02-16T16:55:29.100Z,98476.69
2023-02-16T16:57:59.200Z,98480.69
2023-02-16T17:00:31.099Z,98483.31
2023-02-16T17:02:58.401Z,98487.97
2023-02-16T17:05:25.085Z,98487.78
2023-02-16T17:07:51.979Z,98488.25
2023-02-16T17:10:21.218Z,98496.09
2023-02-16T17:12:52.308Z,98493.09
2023-02-16T17:15:45.825Z,98495.63
2023-02-16T17:18:16.897Z,98502.50
2023-02-16T17:20:44.891Z,98491.84
2023-02-16T17:23:14.317Z,98488.19
2023-02-16T17:25:41.890Z,98489.47
2023-02-16T17:28:10.357Z,98487.91
2023-02-16T17:30:37.232Z,98500.50
2023-02-16T17:33:04.966Z,98488.53
2023-02-16T17:35:31.710Z,98494.94
2023-02-16T17:37:58.378Z,98497.47
2023-02-16T17:40:25.855Z,98494.47
2023-02-16T17:42:52.506Z,98504.66
2023-02-16T17:45:22.152Z,98498.69
2023-02-16T17:47:51.384Z,98502.38
2023-02-16T17:50:19.845Z,98500.13
2023-02-16T17:52:47.105Z,98506.16
2023-02-16T17:55:14.395Z,98506.59
2023-02-16T17:57:41.750Z,98507.22
2023-02-16T18:00:16.762Z,98505.28
2023-02-16T18:02:43.443Z,98508.22
2023-02-16T18:05:10.107Z,98504.25
2023-02-16T18:07:37.043Z,98501.81
2023-02-16T18:10:05.504Z,98508.94
2023-02-16T18:12:32.081Z,98503.28
2023-02-16T18:14:58.762Z,98510.34
2023-02-16T18:17:25.387Z,98521.69
2023-02-16T18:19:52.172Z,98508.63
2023-02-16T18:22:18.745Z,98514.13
2023-02-16T18:24:45.411Z,98519.91
2023-02-16T18:27:12.063Z,98519.25
2023-02-16T18:29:39.085Z,98515.22
2023-02-16T18:32:05.964Z,98520.72
2023-02-16T18:34:35.140Z,98519.09
2023-02-16T18:37:02.653Z,98523.00
2023-02-16T18:39:29.506Z,98522.88
2023-02-16T18:41:56.386Z,98532.50
2023-02-16T18:44:22.975Z,98533.72
2023-02-16T18:46:49.551Z,98536.53
2023-02-16T18:49:16.784Z,98530.78
2023-02-16T18:51:43.351Z,98533.06
2023-02-16T18:54:10.168Z,98547.00
2023-02-16T18:56:39.085Z,98541.25
2023-02-16T18:59:05.918Z,98540.47
2023-02-16T19:01:33.398Z,98549.69
2023-02-16T19:04:01.993Z,98547.31
2023-02-16T19:06:29.409Z,98539.88
2023-02-16T19:08:58.425Z,98535.13
2023-02-16T19:11:25.778Z,98539.66
2023-02-16T19:13:52.547Z,98542.16
2023-02-16T19:16:19.255Z,98539.16
2023-02-16T19:18:46.548Z,98533.53
2023-02-16T19:21:15.002Z,98528.72
2023-02-16T19:23:42.189Z,98535.78
2023-02-16T19:26:14.687Z,98539.16
2023-02-16T19:28:41.898Z,98534.22
2023-02-16T19:31:16.119Z,98538.94
2023-02-16T19:33:42.852Z,98541.53
2023-02-16T19:36:10.763Z,98541.03
2023-02-16T19:38:37.563Z,98537.75
2023-02-16T19:41:13.635Z,98549.63
2023-02-16T19:43:41.043Z,98549.50
2023-02-16T19:46:08.535Z,98549.38
2023-02-16T19:48:35.437Z,98548.22
2023-02-16T19:51:06.593Z,98547.72
2023-02-16T19:53:38.064Z,98551.69
2023-02-16T19:56:12.326Z,98552.66
2023-02-16T19:58:39.575Z,98551.88
2023-02-16T20:01:17.834Z,98560.94
2023-02-16T20:03:47.237Z,98555.94
2023-02-16T20:06:17.404Z,98557.69
2023-02-16T20:08:45.934Z,98545.84
2023-02-16T20:11:14.091Z,98558.06
2023-02-16T20:13:41.451Z,98563.25
2023-02-16T20:16:11.381Z,98561.19
2023-02-16T20:18:40.076Z,98565.63
2023-02-16T20:21:17.854Z,98565.72
2023-02-16T20:23:45.283Z,98563.72
2023-02-16T20:26:19.018Z,98564.75
2023-02-16T20:28:46.034Z,98565.50
2023-02-16T20:31:23.252Z,98549.38
2023-02-16T20:33:51.484Z,98564.22
2023-02-16T20:36:20.447Z,98564.84
2023-02-16T20:38:48.300Z,98564.09
2023-02-16T20:41:14.866Z,98564.72
2023-02-16T20:43:42.365Z,98575.31
2023-02-16T20:46:11.133Z,98570.25
2023-02-16T20:48:38.528Z,98572.16
2023-02-16T20:51:08.173Z,98563.97
2023-02-16T20:53:35.269Z,98562.03
2023-02-16T20:56:11.472Z,98567.56
2023-02-16T20:58:38.261Z,98570.66
2023-02-16T21:01:20.357Z,98565.78
2023-02-16T21:03:47.183Z,98565.66
2023-02-16T21:06:14.879Z,98570.94
2023-02-16T21:08:41.517Z,98567.13
2023-02-16T21:11:08.221Z,98569.91
2023-02-16T21:13:34.871Z,98564.38
2023-02-16T21:16:01.511Z,98562.34
2023-02-16T21:18:30.851Z,98568.38
2023-02-16T21:21:00.444Z,98571.94
2023-02-16T21:23:27.866Z,98561.50
2023-02-16T21:26:02.245Z,98577.16
2023-02-16T21:28:29.218Z,98570.84
2023-02-16T21:30:56.284Z,98562.50
2023-02-16T21:33:22.972Z,98561.31
2023-02-16T21:35:49.579Z,98558.91
2023-02-16T21:38:17.703Z,98561.66
2023-02-16T21:41:02.956Z,98567.91
2023-02-16T21:43:29.591Z,98562.78
2023-02-16T21:46:00.877Z,98560.22
2023-02-16T21:48:46.494Z,98561.16
2023-02-16T21:51:19.594Z,98559.22
2023-02-16T21:53:46.431Z,98553.84
2023-02-16T21:56:39.102Z,98555.19
2023-02-16T21:59:09.580Z,98551.69
2023-02-16T22:01:39.741Z,98551.25
2023-02-16T22:04:06.671Z,98552.47
2023-02-16T22:06:37.321Z,98554.25
2023-02-16T22:09:07.643Z,98557.44
2023-02-16T22:11:34.267Z,98560.59
2023-02-16T22:14:01.657Z,98551.44
2023-02-16T22:16:30.084Z,98545.13
2023-02-16T22:19:06.128Z,98554.56
2023-02-16T22:21:36.661Z,98552.13
2023-02-16T22:24:03.684Z,98557.31
2023-02-16T22:26:32.329Z,98547.41
2023-02-16T22:28:59.071Z,98546.25
2023-02-16T22:31:27.502Z,98550.50
2023-02-16T22:33:57.837Z,98549.50
2023-02-16T22:36:24.988Z,98549.13
2023-02-16T22:38:52.930Z,98546.41
2023-02-16T22:41:20.260Z,98552.94
2023-02-16T22:43:47.273Z,98559.53
2023-02-16T22:46:16.554Z,98556.81
2023-02-16T22:48:44.361Z,98555.84
2023-02-16T22:51:13.752Z,98540.31
2023-02-16T22:53:40.581Z,98540.09
2023-02-16T22:56:09.239Z,98536.97
2023-02-16T22:58:36.862Z,98539.47
2023-02-16T23:01:03.963Z,98550.94
2023-02-16T23:03:31.108Z,98541.31
2023-02-16T23:05:57.687Z,98537.09
2023-02-16T23:08:24.319Z,98534.50
2023-02-16T23:11:00.025Z,98538.28
2023-02-16T23:13:32.376Z,98538.41
2023-02-16T23:16:08.222Z,98534.44
2023-02-16T23:18:35.410Z,98547.41
2023-02-16T23:21:09.262Z,98542.50
2023-02-16T23:23:36.529Z,98543.38
2023-02-16T23:26:05.976Z,98532.34
2023-02-16T23:28:34.367Z,98533.59
2023-02-16T23:31:01.316Z,98538.78
2023-02-16T23:33:28.033Z,98530.56
2023-02-16T23:35:54.913Z,98541.25
2023-02-16T23:38:21.925Z,98530.13
2023-02-16T23:40:59.826Z,98541.72
2023-02-16T23:43:26.793Z,98544.28
2023-02-16T23:45:53.796Z,98546.84
2023-02-16T23:48:20.605Z,98540.28
2023-02-16T23:50:47.333Z,98535.91
2023-02-16T23:53:13.937Z,98533.34
2023-02-16T23:55:40.563Z,98539.03
2023-02-16T23:58:07.196Z,98545.91
